createdAt,value
2024-01-16T00:00:24.753Z,-1.30
2024-01-16T00:03:26.272Z,-1.39
2024-01-16T00:06:27.849Z,-1.37
2024-01-16T00:09:29.318Z,-1.23
2024-01-16T00:12:30.745Z,-1.39
2024-01-16T00:15:32.207Z,-1.47
2024-01-16T00:18:33.899Z,-1.40
2024-01-16T00:21:40.471Z,-1.33
2024-01-16T00:24:41.878Z,-1.35
2024-01-16T00:27:43.793Z,-1.42
2024-01-16T00:30:45.313Z,-1.46
2024-01-16T00:33:46.795Z,-1.42
2024-01-16T00:36:48.245Z,-1.25
2024-01-16T00:39:49.643Z,-1.30
2024-01-16T00:42:51.149Z,-1.38
2024-01-16T00:45:52.757Z,-1.41
2024-01-16T00:48:54.314Z,-1.45
2024-01-16T00:51:55.798Z,-1.48
2024-01-16T00:54:57.174Z,-1.41
2024-01-16T00:57:58.586Z,-1.39
2024-01-16T01:01:00.035Z,-1.56
2024-01-16T01:04:01.553Z,-1.40
2024-01-16T01:07:03.130Z,-1.43
2024-01-16T01:10:04.758Z,-1.30
2024-01-16T01:13:06.158Z,-1.33
2024-01-16T01:16:07.551Z,-1.32
2024-01-16T01:19:09.044Z,-1.51
2024-01-16T01:22:10.461Z,-1.40
2024-01-16T01:25:12.717Z,-1.44
2024-01-16T01:28:14.105Z,-1.48
2024-01-16T01:31:15.514Z,-1.27
2024-01-16T01:34:17.363Z,-1.36
2024-01-16T01:37:18.872Z,-1.25
2024-01-16T01:40:20.268Z,-1.39
2024-01-16T01:43:24.315Z,-1.29
2024-01-16T01:46:26.314Z,-1.30
2024-01-16T01:49:28.610Z,-1.23
2024-01-16T01:52:32.932Z,-1.31
2024-01-16T01:55:34.655Z,-1.35
2024-01-16T01:58:39.175Z,-1.42
2024-01-16T02:01:41.414Z,-1.33
2024-01-16T02:04:45.027Z,-1.34
2024-01-16T02:07:47.196Z,-1.31
2024-01-16T02:10:50.954Z,-1.40
2024-01-16T02:13:52.791Z,-1.35
2024-01-16T02:16:54.206Z,-1.43
2024-01-16T02:19:55.645Z,-1.39
2024-01-16T02:22:59.774Z,-1.34
2024-01-16T02:26:01.920Z,-1.44
2024-01-16T02:29:05.573Z,-1.36
2024-01-16T02:32:06.973Z,-1.42
2024-01-16T02:35:08.552Z,-1.43
2024-01-16T02:38:10.101Z,-1.38
2024-01-16T02:41:14.602Z,-1.53
2024-01-16T02:44:16.009Z,-1.47
2024-01-16T02:47:17.632Z,-1.40
2024-01-16T02:50:19.092Z,-1.42
2024-01-16T02:53:20.550Z,-1.49
2024-01-16T02:56:21.977Z,-1.57
2024-01-16T02:59:23.609Z,-1.56
2024-01-16T03:02:25.056Z,-1.58
2024-01-16T03:05:26.478Z,-1.52
2024-01-16T03:08:28.015Z,-1.49
2024-01-16T03:11:31.360Z,-1.43
2024-01-16T03:14:35.425Z,-1.66
2024-01-16T03:17:36.984Z,-1.56
2024-01-16T03:20:38.514Z,-1.49
2024-01-16T03:23:39.986Z,-1.64
2024-01-16T03:26:41.772Z,-1.48
2024-01-16T03:29:43.322Z,-1.53
2024-01-16T03:32:44.959Z,-1.52
2024-01-16T03:35:46.561Z,-1.48
2024-01-16T03:38:48.129Z,-1.56
2024-01-16T03:41:49.633Z,-1.49
2024-01-16T03:44:51.099Z,-1.55
2024-01-16T03:47:52.598Z,-1.58
2024-01-16T03:50:55.620Z,-1.67
2024-01-16T03:53:57.167Z,-1.60
2024-01-16T03:56:58.597Z,-1.50
2024-01-16T04:00:00.048Z,-1.51
2024-01-16T04:03:01.447Z,-1.48
2024-01-16T04:06:03.043Z,-1.52
2024-01-16T04:09:05.776Z,-1.69
2024-01-16T04:12:09.202Z,-1.63
2024-01-16T04:15:10.737Z,-1.75
2024-01-16T04:18:12.243Z,-1.73
2024-01-16T04:21:13.948Z,-1.81
2024-01-16T04:24:16.011Z,-1.86
2024-01-16T04:27:17.432Z,-1.91
2024-01-16T04:30:21.298Z,-1.85
2024-01-16T04:33:22.863Z,-1.89
2024-01-16T04:36:24.733Z,-1.91
2024-01-16T04:39:26.107Z,-1.97
2024-01-16T04:42:27.511Z,-2.02
2024-01-16T04:45:29.011Z,-2.01
2024-01-16T04:48:30.480Z,-1.99
2024-01-16T04:51:31.936Z,-1.93
2024-01-16T04:54:33.600Z,-1.94
2024-01-16T04:57:35.005Z,-2.04
2024-01-16T05:00:36.455Z,-2.01
2024-01-16T05:03:38.010Z,-2.07
2024-01-16T05:06:40.381Z,-2.16
2024-01-16T05:09:42.080Z,-2.02
2024-01-16T05:12:43.521Z,-2.04
2024-01-16T05:15:45.006Z,-2.09
2024-01-16T05:18:46.467Z,-2.13
2024-01-16T05:21:47.935Z,-2.14
2024-01-16T05:24:49.315Z,-2.04
2024-01-16T05:27:50.724Z,-2.12
2024-01-16T05:30:52.273Z,-2.08
2024-01-16T05:33:54.291Z,-2.03
2024-01-16T05:36:55.954Z,-2.02
2024-01-16T05:39:57.443Z,-1.91
2024-01-16T05:42:58.879Z,-1.96
2024-01-16T05:46:00.282Z,-1.96
2024-01-16T05:49:02.217Z,-1.95
2024-01-16T05:52:03.820Z,-1.95
2024-01-16T05:55:06.077Z,-1.81
2024-01-16T05:58:07.484Z,-1.77
2024-01-16T06:01:08.940Z,-1.78
2024-01-16T06:04:11.947Z,-1.82
2024-01-16T06:07:14.973Z,-1.74
2024-01-16T06:10:16.640Z,-1.78
2024-01-16T06:13:21.203Z,-1.72
2024-01-16T06:16:22.611Z,-1.82
2024-01-16T06:19:24.054Z,-1.73
2024-01-16T06:22:25.496Z,-1.73
2024-01-16T06:25:26.918Z,-1.74
2024-01-16T06:28:28.372Z,-1.78
2024-01-16T06:31:29.872Z,-1.63
2024-01-16T06:34:31.802Z,-1.65
2024-01-16T06:37:33.281Z,-1.68
2024-01-16T06:40:34.658Z,-1.70
2024-01-16T06:43:36.200Z,-1.65
2024-01-16T06:46:37.611Z,-1.69
2024-01-16T06:49:39.166Z,-1.78
2024-01-16T06:52:40.593Z,-1.83
2024-01-16T06:55:42.036Z,-1.77
2024-01-16T06:58:43.432Z,-1.79
2024-01-16T07:01:45.460Z,-1.66
2024-01-16T07:04:46.992Z,-1.71
2024-01-16T07:07:48.560Z,-1.76
2024-01-16T07:10:49.967Z,-2.01
2024-01-16T07:13:51.404Z,-2.01
2024-01-16T07:16:52.848Z,-1.83
2024-01-16T07:19:54.315Z,-1.79
2024-01-16T07:22:55.762Z,-1.86
2024-01-16T07:25:57.178Z,-1.95
2024-01-16T07:28:58.595Z,-1.82
2024-01-16T07:32:00.251Z,-1.70
2024-01-16T07:35:04.132Z,-1.61
2024-01-16T07:38:05.972Z,-1.54
2024-01-16T07:41:07.441Z,-1.49
2024-01-16T07:44:08.971Z,-1.59
2024-01-16T07:47:10.513Z,-1.53
2024-01-16T07:50:12.038Z,-1.63
2024-01-16T07:53:13.514Z,-1.48
2024-01-16T07:56:15.036Z,-1.58
2024-01-16T07:59:16.458Z,-1.54
2024-01-16T08:02:18.381Z,-1.51
2024-01-16T08:05:22.868Z,-1.48
2024-01-16T08:08:24.504Z,-1.39
2024-01-16T08:11:26.034Z,-1.42
2024-01-16T08:14:27.549Z,-1.55
2024-01-16T08:17:29.081Z,-1.40
2024-01-16T08:20:30.581Z,-1.62
2024-01-16T08:23:32.099Z,-1.48
2024-01-16T08:26:33.598Z,-1.41
2024-01-16T08:29:35.458Z,-1.45
2024-01-16T08:32:36.953Z,-1.45
2024-01-16T08:35:38.577Z,-1.52
2024-01-16T08:38:40.123Z,-1.54
2024-01-16T08:41:41.676Z,-1.41
2024-01-16T08:44:43.246Z,-1.45
2024-01-16T08:47:44.914Z,-1.49
2024-01-16T08:50:46.845Z,-1.67
2024-01-16T08:53:48.368Z,-1.50
2024-01-16T08:56:50.296Z,-1.48
2024-01-16T08:59:51.807Z,-1.50
2024-01-16T09:02:53.464Z,-1.52
2024-01-16T09:05:55.109Z,-1.55
2024-01-16T09:08:57.094Z,-1.74
2024-01-16T09:11:59.069Z,-1.65
2024-01-16T09:15:00.660Z,-1.54
2024-01-16T09:18:02.838Z,-1.51
2024-01-16T09:21:04.649Z,-1.44
2024-01-16T09:24:06.249Z,-1.53
2024-01-16T09:27:07.950Z,-1.40
2024-01-16T09:30:09.877Z,-1.58
2024-01-16T09:33:12.199Z,-1.54
2024-01-16T09:36:13.727Z,-1.32
2024-01-16T09:39:18.098Z,-1.32
2024-01-16T09:42:21.190Z,-1.32
2024-01-16T09:45:23.027Z,-1.55
2024-01-16T09:48:25.528Z,-1.28
2024-01-16T09:51:27.217Z,-1.46
2024-01-16T09:54:28.669Z,-1.13
2024-01-16T09:57:31.007Z,-1.12
2024-01-16T10:00:33.362Z,-1.04
2024-01-16T10:03:36.124Z,-0.89
2024-01-16T10:06:40.371Z,-0.91
2024-01-16T10:09:42.050Z,-0.77
2024-01-16T10:12:44.650Z,-1.07
2024-01-16T10:15:50.832Z,-0.59
2024-01-16T10:19:05.456Z,-0.71
2024-01-16T10:22:10.021Z,-0.77
2024-01-16T10:25:13.546Z,-0.58
2024-01-16T10:28:25.378Z,-0.46
2024-01-16T10:31:31.221Z,-0.64
2024-01-16T10:34:32.894Z,-0.36
2024-01-16T10:37:50.056Z,-0.59
2024-01-16T10:41:06.998Z,-0.26
2024-01-16T10:44:09.037Z,-0.51
2024-01-16T10:47:13.019Z,-0.63
2024-01-16T10:50:14.735Z,-0.45
2024-01-16T10:53:20.029Z,-0.68
2024-01-16T10:56:21.692Z,-0.23
2024-01-16T10:59:27.074Z,-0.45
2024-01-16T11:02:39.568Z,-0.28
2024-01-16T11:05:42.272Z,-0.70
2024-01-16T11:08:47.066Z,-0.48
2024-01-16T11:11:51.250Z,-0.57
2024-01-16T11:14:53.301Z,-0.40
2024-01-16T11:17:56.542Z,-0.34
2024-01-16T11:21:06.119Z,-0.44
2024-01-16T11:24:10.428Z,-0.54
2024-01-16T11:27:23.318Z,-0.47
2024-01-16T11:30:35.249Z,-0.22
2024-01-16T11:33:36.690Z,-0.22
2024-01-16T11:36:56.371Z,-0.14
2024-01-16T11:40:21.783Z,-0.08
2024-01-16T11:43:35.782Z,-0.12
2024-01-16T11:47:01.479Z,0.08
2024-01-16T11:50:13.434Z,-0.05
2024-01-16T11:53:37.703Z,-0.06
2024-01-16T11:56:45.593Z,-0.12
2024-01-16T11:59:48.049Z,0.03
2024-01-16T12:03:02.742Z,-0.07
2024-01-16T12:06:07.553Z,-0.22
2024-01-16T12:09:13.305Z,-0.07
2024-01-16T12:12:16.764Z,-0.09
2024-01-16T12:15:20.072Z,-0.23
2024-01-16T12:18:30.915Z,-0.16
2024-01-16T12:21:41.892Z,0.14
2024-01-16T12:24:43.714Z,-0.36
2024-01-16T12:27:45.159Z,-0.11
2024-01-16T12:30:50.988Z,-0.15
2024-01-16T12:33:58.375Z,-0.24
2024-01-16T12:37:07.955Z,0.21
2024-01-16T12:40:09.887Z,0.37
2024-01-16T12:43:11.467Z,0.23
2024-01-16T12:46:13.089Z,0.29
2024-01-16T12:49:14.650Z,0.18
2024-01-16T12:52:21.808Z,0.22
2024-01-16T12:55:24.566Z,0.58
2024-01-16T12:58:28.998Z,0.60
2024-01-16T13:01:38.896Z,0.74
2024-01-16T13:04:41.920Z,0.36
2024-01-16T13:07:43.336Z,0.39
2024-01-16T13:10:44.728Z,0.30
2024-01-16T13:13:48.957Z,0.41
2024-01-16T13:16:56.544Z,0.71
2024-01-16T13:19:58.005Z,0.73
2024-01-16T13:22:59.520Z,0.72
2024-01-16T13:26:01.370Z,0.53
2024-01-16T13:29:02.842Z,0.71
2024-01-16T13:32:05.535Z,0.59
2024-01-16T13:35:10.628Z,0.41
2024-01-16T13:38:12.680Z,0.34
2024-01-16T13:41:14.248Z,0.08
2024-01-16T13:44:15.754Z,0.70
2024-01-16T13:47:22.966Z,0.71
2024-01-16T13:50:25.126Z,0.63
2024-01-16T13:53:26.676Z,0.29
2024-01-16T13:56:46.042Z,0.72
2024-01-16T13:59:49.556Z,0.64
2024-01-16T14:02:51.964Z,0.49
2024-01-16T14:05:56.419Z,0.73
2024-01-16T14:08:57.844Z,0.19
2024-01-16T14:11:59.310Z,0.46
2024-01-16T14:15:01.803Z,0.44
2024-01-16T14:18:10.582Z,0.50
2024-01-16T14:21:12.070Z,0.13
2024-01-16T14:24:13.663Z,0.21
2024-01-16T14:27:16.675Z,-0.13
2024-01-16T14:30:19.754Z,0.09
2024-01-16T14:33:21.339Z,0.08
2024-01-16T14:36:22.801Z,0.27
2024-01-16T14:39:26.989Z,0.13
2024-01-16T14:42:29.238Z,-0.06
2024-01-16T14:45:32.585Z,0.05
2024-01-16T14:48:34.110Z,0.01
2024-01-16T14:51:36.466Z,-0.05
2024-01-16T14:54:37.925Z,0.08
2024-01-16T14:57:47.689Z,0.03
2024-01-16T15:00:49.775Z,-0.09
2024-01-16T15:03:51.310Z,-0.04
2024-01-16T15:06:53.895Z,-0.16
2024-01-16T15:09:56.270Z,0.04
2024-01-16T15:12:57.768Z,-0.05
2024-01-16T15:15:59.200Z,-0.02
2024-01-16T15:19:00.872Z,0.12
2024-01-16T15:22:02.465Z,0.25
2024-01-16T15:25:06.153Z,-0.08
2024-01-16T15:28:07.668Z,-0.01
2024-01-16T15:31:09.929Z,0.03
2024-01-16T15:34:14.785Z,0.12
2024-01-16T15:37:18.290Z,0.07
2024-01-16T15:40:20.369Z,-0.01
2024-01-16T15:43:21.958Z,-0.16
2024-01-16T15:46:24.888Z,-0.12
2024-01-16T15:49:27.393Z,-0.14
2024-01-16T15:52:29.285Z,-0.36
2024-01-16T15:55:30.712Z,-0.23
2024-01-16T15:58:33.524Z,-0.14
2024-01-16T16:01:35.004Z,-0.18
2024-01-16T16:04:38.075Z,-0.32
2024-01-16T16:07:39.614Z,-0.28
2024-01-16T16:10:42.466Z,-0.17
2024-01-16T16:13:44.073Z,-0.51
2024-01-16T16:16:48.336Z,-0.52
2024-01-16T16:19:50.546Z,-0.51
2024-01-16T16:22:52.191Z,-0.39
2024-01-16T16:25:53.664Z,-0.54
2024-01-16T16:28:55.076Z,-0.53
2024-01-16T16:31:57.885Z,-0.51
2024-01-16T16:34:59.337Z,-0.49
2024-01-16T16:38:01.277Z,-0.59
2024-01-16T16:41:03.137Z,-0.57
2024-01-16T16:44:04.703Z,-0.63
2024-01-16T16:47:06.106Z,-0.64
2024-01-16T16:50:07.764Z,-0.68
2024-01-16T16:53:10.024Z,-0.67
2024-01-16T16:56:13.272Z,-0.69
2024-01-16T16:59:14.814Z,-0.74
2024-01-16T17:02:16.313Z,-0.86
2024-01-16T17:05:20.310Z,-0.89
2024-01-16T17:08:22.049Z,-0.96
2024-01-16T17:11:24.889Z,-0.91
2024-01-16T17:14:26.373Z,-0.90
2024-01-16T17:17:30.135Z,-0.94
2024-01-16T17:20:32.841Z,-1.04
2024-01-16T17:23:35.210Z,-1.13
2024-01-16T17:26:36.975Z,-1.17
2024-01-16T17:29:39.753Z,-1.23
2024-01-16T17:32:41.448Z,-1.30
2024-01-16T17:35:43.061Z,-1.34
2024-01-16T17:38:45.509Z,-1.34
2024-01-16T17:41:47.303Z,-1.35
2024-01-16T17:44:50.162Z,-1.40
2024-01-16T17:47:52.087Z,-1.57
2024-01-16T17:50:53.786Z,-1.60
2024-01-16T17:53:55.512Z,-1.59
2024-01-16T17:56:57.800Z,-1.62
2024-01-16T17:59:59.361Z,-1.77
2024-01-16T18:03:01.177Z,-1.88
2024-01-16T18:06:06.350Z,-1.88
2024-01-16T18:09:11.135Z,-1.87
2024-01-16T18:12:12.778Z,-1.88
2024-01-16T18:15:14.502Z,-1.91
2024-01-16T18:18:17.232Z,-2.01
2024-01-16T18:21:18.979Z,-2.01
2024-01-16T18:24:22.292Z,-2.13
2024-01-16T18:27:23.735Z,-2.13
2024-01-16T18:30:27.598Z,-2.16
2024-01-16T18:33:29.299Z,-2.29
2024-01-16T18:36:30.875Z,-2.39
2024-01-16T18:39:32.910Z,-2.41
2024-01-16T18:42:34.319Z,-2.43
2024-01-16T18:45:35.819Z,-2.43
2024-01-16T18:48:37.396Z,-2.52
2024-01-16T18:51:38.971Z,-2.62
2024-01-16T18:54:41.185Z,-2.56
2024-01-16T18:57:43.533Z,-2.65
2024-01-16T19:00:45.623Z,-2.71
2024-01-16T19:03:49.407Z,-2.72
2024-01-16T19:06:52.900Z,-2.78
2024-01-16T19:09:54.379Z,-2.91
2024-01-16T19:12:56.514Z,-2.96
2024-01-16T19:15:57.940Z,-3.03
2024-01-16T19:19:00.114Z,-3.08
2024-01-16T19:22:01.793Z,-3.06
2024-01-16T19:25:03.518Z,-3.18
2024-01-16T19:28:05.085Z,-3.30
2024-01-16T19:31:06.762Z,-3.26
2024-01-16T19:34:10.878Z,-3.35
2024-01-16T19:37:12.382Z,-3.40
2024-01-16T19:40:17.899Z,-3.55
2024-01-16T19:43:20.590Z,-3.51
2024-01-16T19:46:21.989Z,-3.57
2024-01-16T19:49:23.422Z,-3.60
2024-01-16T19:52:24.834Z,-3.58
2024-01-16T19:55:26.234Z,-3.59
2024-01-16T19:58:27.671Z,-3.62
2024-01-16T20:01:31.572Z,-3.75
2024-01-16T20:04:34.015Z,-3.92
2024-01-16T20:07:35.647Z,-3.81
2024-01-16T20:10:39.897Z,-3.76
2024-01-16T20:13:41.642Z,-3.78
2024-01-16T20:16:43.215Z,-3.84
2024-01-16T20:19:44.774Z,-3.81
2024-01-16T20:22:46.293Z,-3.90
2024-01-16T20:25:47.769Z,-3.92
2024-01-16T20:28:52.090Z,-4.00
2024-01-16T20:31:53.633Z,-4.06
2024-01-16T20:34:55.557Z,-4.26
2024-01-16T20:37:57.075Z,-4.42
2024-01-16T20:40:58.479Z,-4.60
2024-01-16T20:43:59.957Z,-4.67
2024-01-16T20:47:02.019Z,-4.65
2024-01-16T20:50:06.319Z,-4.63
2024-01-16T20:53:07.763Z,-4.58
2024-01-16T20:56:09.379Z,-4.51
2024-01-16T20:59:12.475Z,-4.52
2024-01-16T21:02:13.906Z,-4.67
2024-01-16T21:05:15.518Z,-4.67
2024-01-16T21:08:17.114Z,-4.64
2024-01-16T21:11:18.537Z,-4.67
2024-01-16T21:14:20.756Z,-4.79
2024-01-16T21:17:23.911Z,-4.80
2024-01-16T21:20:26.171Z,-4.80
2024-01-16T21:23:27.653Z,-4.74
2024-01-16T21:26:29.339Z,-4.74
2024-01-16T21:29:30.840Z,-4.72
2024-01-16T21:32:32.562Z,-4.77
2024-01-16T21:35:34.887Z,-4.94
2024-01-16T21:38:36.822Z,-5.10
2024-01-16T21:41:38.304Z,-5.21
2024-01-16T21:44:40.075Z,-5.21
2024-01-16T21:47:41.546Z,-5.22
2024-01-16T21:50:43.871Z,-5.09
2024-01-16T21:53:45.737Z,-5.17
2024-01-16T21:56:47.166Z,-5.34
2024-01-16T21:59:48.687Z,-5.36
2024-01-16T22:02:57.514Z,-5.28
2024-01-16T22:05:59.201Z,-5.21
2024-01-16T22:09:00.741Z,-5.21
2024-01-16T22:12:02.316Z,-5.28
2024-01-16T22:15:04.236Z,-5.33
2024-01-16T22:18:05.855Z,-5.35
2024-01-16T22:21:08.175Z,-5.40
2024-01-16T22:24:09.693Z,-5.35
2024-01-16T22:27:11.150Z,-5.29
2024-01-16T22:30:13.444Z,-5.35
2024-01-16T22:33:15.066Z,-5.38
2024-01-16T22:36:16.721Z,-5.38
2024-01-16T22:39:18.787Z,-5.42
2024-01-16T22:42:21.609Z,-5.51
2024-01-16T22:45:24.167Z,-5.63
2024-01-16T22:48:25.866Z,-5.66
2024-01-16T22:51:27.336Z,-5.76
2024-01-16T22:54:28.706Z,-5.68
2024-01-16T22:57:30.131Z,-5.63
2024-01-16T23:00:31.813Z,-5.69
2024-01-16T23:03:33.299Z,-5.68
2024-01-16T23:06:34.728Z,-5.75
2024-01-16T23:09:36.246Z,-5.80
2024-01-16T23:12:37.656Z,-5.76
2024-01-16T23:15:39.310Z,-5.79
2024-01-16T23:18:41.295Z,-5.84
2024-01-16T23:21:42.796Z,-5.90
2024-01-16T23:24:44.202Z,-5.94
2024-01-16T23:27:45.680Z,-5.89
2024-01-16T23:30:47.136Z,-5.95
2024-01-16T23:33:48.688Z,-6.04
2024-01-16T23:36:50.489Z,-6.18
2024-01-16T23:39:55.145Z,-6.18
2024-01-16T23:42:58.260Z,-6.23
2024-01-16T23:46:01.732Z,-6.25
2024-01-16T23:49:03.303Z,-6.22
2024-01-16T23:52:06.775Z,-6.16
2024-01-16T23:55:10.247Z,-6.18
2024-01-16T23:58:11.987Z,-6.12
